Amity, PA

3:01 PM EDT on March 31, 2015 (GMT -0400)
South Franklin, Alamae Lakes | | Change Station
CLOSE
Current Station
Personal Weather Station
Location: Washington, PA
Elevation: 1260 ft
Nearby Weather Stations

Elev 1260 ft 40.09 °N, 80.25 °W | Updated 1 minute ago

Mostly Cloudy
Mostly Cloudy
59.3 °F
Feels Like 59.3 °F
N
12.0
Wind Variable Wind from WNW
Gusts 12.0 mph

Today
High -- | Low -- °F
--% Chance of Precip.
Yesterday
High -- | Low -- °F
Precip. -- in
7:06 AM 7:43 PM
Waxing Gibbous, 88% visible
Pressure 29.65 in
Visibility 10.0 miles
Clouds Scattered Clouds 7500 ft
Mostly Cloudy 8500 ft
Overcast 11000 ft
Dew Point 37 °F
Humidity 44%
Rainfall 0.00 in
Snow Depth Not available.
UV 2 out of 12
Pollen 4.00 out of 12
Air Quality Not available.
Flu Activity Not available.
METAR KAFJ 311855Z AUTO 28009G23KT 10SM SCT075 BKN085 OVC110 15/00 A2965 RMK AO1

More Conditions Fewer Conditions

Pressure 29.65 in
Visibility 10.0 miles
Clouds Scattered Clouds 7500 ft
Mostly Cloudy 8500 ft
Overcast 11000 ft
Dew Point 37 °F
Humidity 44%
Rainfall 0.00 in
Snow Depth Not available.
UV 2 out of 12
Pollen 4.00 out of 12
Air Quality Not available.
Flu Activity Not available.
METAR KAFJ 311855Z AUTO 28009G23KT 10SM SCT075 BKN085 OVC110 15/00 A2965 RMK AO1

More Conditions Fewer Conditions

10-Day Weather Forecast

Almanac

Astronomy

Mar. 31, 2015 Rise Set
Actual Time
Civil Twilight
Nautical Twilight
Astronomical Twilight
Moon
Length of Visible Light
Length of Day
Tomorrow will be .
, % of the Moon is Illuminated

Today's Extremes

State Highs State Lows

Community

WunderPhotos

Upload Photos

1,809,797 photos uploaded!

WunderBlogs® & News

Nearby

Air Quality

  Air Quality AQ Index Pollutant
Not available.

Snow Depth

Station Depth Elevation

Earthquake Activity

City Distance Mag. Time & Date
Minimum magnitude displayed is 2.5.

Coastal Water Temperatures

Place Temperature

Stations

Nearby Weather Stations

Station Location Temp. Windchill Dew Point Humidity Wind Precip. Elev Updated Type